sensor_id;sensor_type;location;lat;lon;timestamp;P1;durP1;ratioP1;P2;durP2;ratioP2
84187;SDS011;76752;45.648;13.764;2024-02-23T00:00:49;11.15;;;5.68;;
84187;SDS011;76752;45.648;13.764;2024-02-23T00:03:27;12.68;;;5.85;;
84187;SDS011;76752;45.648;13.764;2024-02-23T00:05:57;16.92;;;6.03;;
84187;SDS011;76752;45.648;13.764;2024-02-23T00:08:37;15.68;;;6.18;;
84187;SDS011;76752;45.648;13.764;2024-02-23T00:11:03;11.20;;;5.60;;
84187;SDS011;76752;45.648;13.764;2024-02-23T00:13:29;12.18;;;5.88;;
84187;SDS011;76752;45.648;13.764;2024-02-23T00:15:55;15.05;;;6.22;;
84187;SDS011;76752;45.648;13.764;2024-02-23T00:18:21;14.45;;;5.63;;
84187;SDS011;76752;45.648;13.764;2024-02-23T00:20:47;10.05;;;5.07;;
84187;SDS011;76752;45.648;13.764;2024-02-23T00:23:13;15.52;;;5.47;;
84187;SDS011;76752;45.648;13.764;2024-02-23T00:25:39;10.98;;;5.30;;
84187;SDS011;76752;45.648;13.764;2024-02-23T00:28:05;11.10;;;5.65;;
84187;SDS011;76752;45.648;13.764;2024-02-23T00:30:32;14.25;;;6.15;;
84187;SDS011;76752;45.648;13.764;2024-02-23T00:32:57;11.98;;;5.38;;
84187;SDS011;76752;45.648;13.764;2024-02-23T00:35:23;15.75;;;5.97;;
84187;SDS011;76752;45.648;13.764;2024-02-23T00:37:49;11.93;;;5.20;;
84187;SDS011;76752;45.648;13.764;2024-02-23T00:40:15;10.10;;;4.90;;
84187;SDS011;76752;45.648;13.764;2024-02-23T00:42:42;15.68;;;5.80;;
84187;SDS011;76752;45.648;13.764;2024-02-23T00:45:08;13.13;;;5.30;;
84187;SDS011;76752;45.648;13.764;2024-02-23T00:47:35;12.15;;;4.63;;
84187;SDS011;76752;45.648;13.764;2024-02-23T00:50:01;12.63;;;5.30;;
84187;SDS011;76752;45.648;13.764;2024-02-23T00:52:30;10.20;;;5.05;;
84187;SDS011;76752;45.648;13.764;2024-02-23T00:54:57;12.57;;;5.43;;
84187;SDS011;76752;45.648;13.764;2024-02-23T00:57:23;12.65;;;5.30;;
84187;SDS011;76752;45.648;13.764;2024-02-23T00:59:55;8.43;;;5.07;;
84187;SDS011;76752;45.648;13.764;2024-02-23T01:02:21;13.15;;;5.00;;
84187;SDS011;76752;45.648;13.764;2024-02-23T01:04:48;8.02;;;4.82;;
84187;SDS011;76752;45.648;13.764;2024-02-23T01:07:14;10.05;;;4.97;;
84187;SDS011;76752;45.648;13.764;2024-02-23T01:09:39;8.68;;;4.63;;
84187;SDS011;76752;45.648;13.764;2024-02-23T01:12:05;10.77;;;5.00;;
84187;SDS011;76752;45.648;13.764;2024-02-23T01:14:32;10.20;;;5.00;;
84187;SDS011;76752;45.648;13.764;2024-02-23T01:16:58;7.07;;;4.40;;
84187;SDS011;76752;45.648;13.764;2024-02-23T01:19:25;9.57;;;4.85;;
84187;SDS011;76752;45.648;13.764;2024-02-23T01:21:50;8.07;;;4.60;;
84187;SDS011;76752;45.648;13.764;2024-02-23T01:24:24;7.85;;;4.72;;
84187;SDS011;76752;45.648;13.764;2024-02-23T01:26:51;7.88;;;4.53;;
84187;SDS011;76752;45.648;13.764;2024-02-23T01:29:17;10.13;;;4.57;;
84187;SDS011;76752;45.648;13.764;2024-02-23T01:31:43;8.82;;;4.72;;
84187;SDS011;76752;45.648;13.764;2024-02-23T01:34:09;9.45;;;4.70;;
84187;SDS011;76752;45.648;13.764;2024-02-23T01:36:35;12.18;;;5.13;;
84187;SDS011;76752;45.648;13.764;2024-02-23T01:39:02;9.90;;;4.72;;
84187;SDS011;76752;45.648;13.764;2024-02-23T01:41:29;10.85;;;4.75;;
84187;SDS011;76752;45.648;13.764;2024-02-23T01:43:54;7.88;;;4.53;;
84187;SDS011;76752;45.648;13.764;2024-02-23T01:46:21;12.82;;;4.70;;
84187;SDS011;76752;45.648;13.764;2024-02-23T01:48:47;7.88;;;4.03;;
84187;SDS011;76752;45.648;13.764;2024-02-23T01:51:12;8.52;;;4.38;;
84187;SDS011;76752;45.648;13.764;2024-02-23T01:53:38;9.02;;;4.05;;
84187;SDS011;76752;45.648;13.764;2024-02-23T01:56:04;8.68;;;4.20;;
84187;SDS011;76752;45.648;13.764;2024-02-23T01:58:31;7.15;;;4.32;;
84187;SDS011;76752;45.648;13.764;2024-02-23T02:01:00;9.48;;;4.63;;
84187;SDS011;76752;45.648;13.764;2024-02-23T02:03:26;8.60;;;4.60;;
84187;SDS011;76752;45.648;13.764;2024-02-23T02:05:53;8.57;;;4.38;;
84187;SDS011;76752;45.648;13.764;2024-02-23T02:08:19;8.90;;;4.28;;
84187;SDS011;76752;45.648;13.764;2024-02-23T02:10:45;7.88;;;4.03;;
84187;SDS011;76752;45.648;13.764;2024-02-23T02:13:11;9.77;;;4.28;;
84187;SDS011;76752;45.648;13.764;2024-02-23T02:15:37;7.57;;;4.20;;
84187;SDS011;76752;45.648;13.764;2024-02-23T02:18:03;7.55;;;4.30;;
84187;SDS011;76752;45.648;13.764;2024-02-23T02:20:32;11.07;;;4.10;;
84187;SDS011;76752;45.648;13.764;2024-02-23T02:23:01;7.25;;;4.13;;
84187;SDS011;76752;45.648;13.764;2024-02-23T02:25:28;7.25;;;4.40;;
84187;SDS011;76752;45.648;13.764;2024-02-23T02:27:54;8.50;;;3.97;;
84187;SDS011;76752;45.648;13.764;2024-02-23T02:30:19;5.72;;;3.75;;
84187;SDS011;76752;45.648;13.764;2024-02-23T02:32:46;5.25;;;3.78;;
84187;SDS011;76752;45.648;13.764;2024-02-23T02:35:12;6.63;;;4.10;;
84187;SDS011;76752;45.648;13.764;2024-02-23T02:37:37;15.40;;;3.90;;
84187;SDS011;76752;45.648;13.764;2024-02-23T02:40:04;6.03;;;3.60;;
84187;SDS011;76752;45.648;13.764;2024-02-23T02:42:30;6.72;;;4.03;;
84187;SDS011;76752;45.648;13.764;2024-02-23T02:44:56;7.38;;;4.00;;
84187;SDS011;76752;45.648;13.764;2024-02-23T02:47:22;6.28;;;3.65;;
84187;SDS011;76752;45.648;13.764;2024-02-23T02:49:49;13.77;;;4.38;;
84187;SDS011;76752;45.648;13.764;2024-02-23T02:52:16;7.20;;;3.60;;
84187;SDS011;76752;45.648;13.764;2024-02-23T02:54:42;7.53;;;4.00;;
84187;SDS011;76752;45.648;13.764;2024-02-23T02:57:08;7.63;;;3.70;;
84187;SDS011;76752;45.648;13.764;2024-02-23T02:59:34;5.28;;;3.92;;
84187;SDS011;76752;45.648;13.764;2024-02-23T03:02:01;6.80;;;3.63;;
84187;SDS011;76752;45.648;13.764;2024-02-23T03:04:26;5.88;;;3.65;;
84187;SDS011;76752;45.648;13.764;2024-02-23T03:06:52;8.07;;;4.00;;
84187;SDS011;76752;45.648;13.764;2024-02-23T03:09:18;8.27;;;3.83;;
84187;SDS011;76752;45.648;13.764;2024-02-23T03:11:43;5.25;;;3.53;;
84187;SDS011;76752;45.648;13.764;2024-02-23T03:14:09;7.40;;;3.85;;
84187;SDS011;76752;45.648;13.764;2024-02-23T03:16:35;8.30;;;3.88;;
84187;SDS011;76752;45.648;13.764;2024-02-23T03:19:02;9.77;;;4.05;;
84187;SDS011;76752;45.648;13.764;2024-02-23T03:21:28;6.25;;;3.72;;
84187;SDS011;76752;45.648;13.764;2024-02-23T03:23:55;8.75;;;3.75;;
84187;SDS011;76752;45.648;13.764;2024-02-23T03:26:21;4.43;;;3.33;;
84187;SDS011;76752;45.648;13.764;2024-02-23T03:28:47;6.68;;;3.55;;
84187;SDS011;76752;45.648;13.764;2024-02-23T03:31:13;5.53;;;3.22;;
84187;SDS011;76752;45.648;13.764;2024-02-23T03:33:39;10.32;;;3.97;;
84187;SDS011;76752;45.648;13.764;2024-02-23T03:36:05;9.43;;;3.75;;
84187;SDS011;76752;45.648;13.764;2024-02-23T03:38:31;7.25;;;3.63;;
84187;SDS011;76752;45.648;13.764;2024-02-23T03:40:59;9.75;;;3.55;;
84187;SDS011;76752;45.648;13.764;2024-02-23T03:43:25;8.75;;;3.65;;
84187;SDS011;76752;45.648;13.764;2024-02-23T03:45:52;11.32;;;4.10;;
84187;SDS011;76752;45.648;13.764;2024-02-23T03:48:18;8.68;;;3.40;;
84187;SDS011;76752;45.648;13.764;2024-02-23T03:50:43;10.05;;;4.00;;
84187;SDS011;76752;45.648;13.764;2024-02-23T03:53:09;5.03;;;3.53;;
84187;SDS011;76752;45.648;13.764;2024-02-23T03:55:36;7.78;;;3.65;;
84187;SDS011;76752;45.648;13.764;2024-02-23T03:58:02;8.25;;;3.60;;
84187;SDS011;76752;45.648;13.764;2024-02-23T04:00:28;8.70;;;3.38;;
84187;SDS011;76752;45.648;13.764;2024-02-23T04:02:53;5.85;;;3.60;;
84187;SDS011;76752;45.648;13.764;2024-02-23T04:05:19;5.28;;;3.22;;
84187;SDS011;76752;45.648;13.764;2024-02-23T04:07:45;6.25;;;3.50;;
84187;SDS011;76752;45.648;13.764;2024-02-23T04:10:10;9.77;;;3.72;;
84187;SDS011;76752;45.648;13.764;2024-02-23T04:12:41;5.80;;;3.33;;
84187;SDS011;76752;45.648;13.764;2024-02-23T04:15:07;3.65;;;2.92;;
84187;SDS011;76752;45.648;13.764;2024-02-23T04:17:35;4.20;;;3.05;;
84187;SDS011;76752;45.648;13.764;2024-02-23T04:20:01;7.88;;;3.63;;
84187;SDS011;76752;45.648;13.764;2024-02-23T04:22:32;4.90;;;3.15;;
84187;SDS011;76752;45.648;13.764;2024-02-23T04:24:58;5.25;;;3.42;;
84187;SDS011;76752;45.648;13.764;2024-02-23T04:27:23;5.13;;;3.25;;
84187;SDS011;76752;45.648;13.764;2024-02-23T04:29:50;7.63;;;3.20;;
84187;SDS011;76752;45.648;13.764;2024-02-23T04:32:16;4.45;;;3.08;;
84187;SDS011;76752;45.648;13.764;2024-02-23T04:34:42;4.20;;;2.97;;
84187;SDS011;76752;45.648;13.764;2024-02-23T04:37:09;7.45;;;2.90;;
84187;SDS011;76752;45.648;13.764;2024-02-23T04:39:34;5.07;;;3.15;;
84187;SDS011;76752;45.648;13.764;2024-02-23T04:42:02;6.18;;;3.53;;
84187;SDS011;76752;45.648;13.764;2024-02-23T04:44:29;5.32;;;3.20;;
84187;SDS011;76752;45.648;13.764;2024-02-23T04:46:55;6.10;;;2.90;;
84187;SDS011;76752;45.648;13.764;2024-02-23T04:49:21;4.78;;;3.05;;
84187;SDS011;76752;45.648;13.764;2024-02-23T04:51:47;7.68;;;3.10;;
84187;SDS011;76752;45.648;13.764;2024-02-23T04:54:14;5.68;;;2.72;;
84187;SDS011;76752;45.648;13.764;2024-02-23T04:56:40;6.50;;;3.58;;
84187;SDS011;76752;45.648;13.764;2024-02-23T04:59:06;4.88;;;3.30;;
84187;SDS011;76752;45.648;13.764;2024-02-23T05:01:38;6.57;;;2.97;;
84187;SDS011;76752;45.648;13.764;2024-02-23T05:04:03;11.10;;;3.67;;
84187;SDS011;76752;45.648;13.764;2024-02-23T05:06:29;6.82;;;2.80;;
84187;SDS011;76752;45.648;13.764;2024-02-23T05:08:55;5.45;;;3.03;;
84187;SDS011;76752;45.648;13.764;2024-02-23T05:11:21;5.97;;;3.33;;
84187;SDS011;76752;45.648;13.764;2024-02-23T05:13:47;7.75;;;2.97;;
84187;SDS011;76752;45.648;13.764;2024-02-23T05:16:14;6.38;;;3.45;;
84187;SDS011;76752;45.648;13.764;2024-02-23T05:18:39;6.68;;;2.92;;
84187;SDS011;76752;45.648;13.764;2024-02-23T05:21:06;6.18;;;2.67;;
84187;SDS011;76752;45.648;13.764;2024-02-23T05:23:32;4.97;;;3.10;;
84187;SDS011;76752;45.648;13.764;2024-02-23T05:25:58;13.27;;;3.53;;
84187;SDS011;76752;45.648;13.764;2024-02-23T05:28:24;11.38;;;3.40;;
84187;SDS011;76752;45.648;13.764;2024-02-23T05:30:50;9.82;;;3.17;;
84187;SDS011;76752;45.648;13.764;2024-02-23T05:33:17;7.82;;;3.50;;
84187;SDS011;76752;45.648;13.764;2024-02-23T05:35:45;5.30;;;2.78;;
84187;SDS011;76752;45.648;13.764;2024-02-23T05:38:14;5.72;;;2.83;;
84187;SDS011;76752;45.648;13.764;2024-02-23T05:40:41;7.78;;;2.90;;
84187;SDS011;76752;45.648;13.764;2024-02-23T05:43:07;4.22;;;2.97;;
84187;SDS011;76752;45.648;13.764;2024-02-23T05:45:33;8.65;;;3.00;;
84187;SDS011;76752;45.648;13.764;2024-02-23T05:47:59;7.22;;;3.10;;
84187;SDS011;76752;45.648;13.764;2024-02-23T05:50:24;9.52;;;3.40;;
84187;SDS011;76752;45.648;13.764;2024-02-23T05:52:57;5.78;;;2.88;;
84187;SDS011;76752;45.648;13.764;2024-02-23T05:55:23;5.63;;;2.90;;
84187;SDS011;76752;45.648;13.764;2024-02-23T05:57:49;6.32;;;3.28;;
84187;SDS011;76752;45.648;13.764;2024-02-23T06:00:15;6.50;;;2.90;;
84187;SDS011;76752;45.648;13.764;2024-02-23T06:02:44;13.00;;;3.20;;
84187;SDS011;76752;45.648;13.764;2024-02-23T06:05:09;5.85;;;2.90;;
84187;SDS011;76752;45.648;13.764;2024-02-23T06:07:35;7.88;;;2.95;;
84187;SDS011;76752;45.648;13.764;2024-02-23T06:10:02;6.05;;;2.80;;
84187;SDS011;76752;45.648;13.764;2024-02-23T06:12:29;7.93;;;2.88;;
84187;SDS011;76752;45.648;13.764;2024-02-23T06:14:55;8.45;;;2.95;;
84187;SDS011;76752;45.648;13.764;2024-02-23T06:17:23;6.40;;;3.05;;
84187;SDS011;76752;45.648;13.764;2024-02-23T06:19:50;11.80;;;2.95;;
84187;SDS011;76752;45.648;13.764;2024-02-23T06:22:17;17.00;;;3.42;;
84187;SDS011;76752;45.648;13.764;2024-02-23T06:24:46;6.57;;;2.83;;
84187;SDS011;76752;45.648;13.764;2024-02-23T06:27:14;6.97;;;3.05;;
84187;SDS011;76752;45.648;13.764;2024-02-23T06:29:40;12.38;;;3.42;;
84187;SDS011;76752;45.648;13.764;2024-02-23T06:32:06;14.45;;;3.05;;
84187;SDS011;76752;45.648;13.764;2024-02-23T06:34:32;12.25;;;3.22;;
84187;SDS011;76752;45.648;13.764;2024-02-23T06:36:58;10.88;;;3.20;;
84187;SDS011;76752;45.648;13.764;2024-02-23T06:39:24;11.07;;;3.05;;
84187;SDS011;76752;45.648;13.764;2024-02-23T06:41:51;16.15;;;2.70;;
84187;SDS011;76752;45.648;13.764;2024-02-23T06:44:17;14.48;;;3.58;;
84187;SDS011;76752;45.648;13.764;2024-02-23T06:46:43;10.60;;;3.05;;
84187;SDS011;76752;45.648;13.764;2024-02-23T06:49:09;18.17;;;3.67;;
84187;SDS011;76752;45.648;13.764;2024-02-23T06:51:35;10.85;;;3.15;;
84187;SDS011;76752;45.648;13.764;2024-02-23T06:54:03;13.75;;;3.63;;
84187;SDS011;76752;45.648;13.764;2024-02-23T06:56:29;8.70;;;2.50;;
84187;SDS011;76752;45.648;13.764;2024-02-23T06:58:55;13.25;;;3.05;;
84187;SDS011;76752;45.648;13.764;2024-02-23T07:01:22;22.90;;;3.90;;
84187;SDS011;76752;45.648;13.764;2024-02-23T07:03:48;19.02;;;3.60;;
84187;SDS011;76752;45.648;13.764;2024-02-23T07:06:16;10.75;;;3.22;;
84187;SDS011;76752;45.648;13.764;2024-02-23T07:08:43;11.38;;;3.08;;
84187;SDS011;76752;45.648;13.764;2024-02-23T07:11:13;15.80;;;3.20;;
84187;SDS011;76752;45.648;13.764;2024-02-23T07:13:42;15.57;;;3.40;;
84187;SDS011;76752;45.648;13.764;2024-02-23T07:16:08;19.40;;;3.40;;
84187;SDS011;76752;45.648;13.764;2024-02-23T07:18:37;12.18;;;3.47;;
84187;SDS011;76752;45.648;13.764;2024-02-23T07:21:03;15.80;;;3.05;;
84187;SDS011;76752;45.648;13.764;2024-02-23T07:23:30;13.43;;;3.25;;
84187;SDS011;76752;45.648;13.764;2024-02-23T07:25:56;11.55;;;3.00;;
84187;SDS011;76752;45.648;13.764;2024-02-23T07:28:22;9.82;;;2.75;;
84187;SDS011;76752;45.648;13.764;2024-02-23T07:30:49;6.90;;;3.00;;
84187;SDS011;76752;45.648;13.764;2024-02-23T07:33:15;7.65;;;2.97;;
84187;SDS011;76752;45.648;13.764;2024-02-23T07:35:41;8.55;;;3.38;;
84187;SDS011;76752;45.648;13.764;2024-02-23T07:38:08;10.95;;;3.08;;
84187;SDS011;76752;45.648;13.764;2024-02-23T07:40:34;14.93;;;3.55;;
84187;SDS011;76752;45.648;13.764;2024-02-23T07:43:03;6.97;;;3.15;;
84187;SDS011;76752;45.648;13.764;2024-02-23T07:45:31;8.43;;;3.30;;
84187;SDS011;76752;45.648;13.764;2024-02-23T07:47:58;11.68;;;2.95;;
84187;SDS011;76752;45.648;13.764;2024-02-23T07:50:25;12.98;;;3.47;;
84187;SDS011;76752;45.648;13.764;2024-02-23T07:52:51;9.75;;;3.30;;
84187;SDS011;76752;45.648;13.764;2024-02-23T07:55:17;23.33;;;3.70;;
84187;SDS011;76752;45.648;13.764;2024-02-23T07:57:43;9.20;;;2.60;;
84187;SDS011;76752;45.648;13.764;2024-02-23T08:00:14;12.43;;;3.17;;
84187;SDS011;76752;45.648;13.764;2024-02-23T08:02:40;7.00;;;2.90;;
84187;SDS011;76752;45.648;13.764;2024-02-23T08:05:08;5.97;;;2.67;;
84187;SDS011;76752;45.648;13.764;2024-02-23T08:07:35;5.82;;;2.80;;
84187;SDS011;76752;45.648;13.764;2024-02-23T08:10:01;8.57;;;2.67;;
84187;SDS011;76752;45.648;13.764;2024-02-23T08:12:27;9.65;;;2.80;;
84187;SDS011;76752;45.648;13.764;2024-02-23T08:14:54;9.35;;;3.08;;
84187;SDS011;76752;45.648;13.764;2024-02-23T08:17:20;8.45;;;2.75;;
84187;SDS011;76752;45.648;13.764;2024-02-23T08:19:46;7.82;;;2.88;;
84187;SDS011;76752;45.648;13.764;2024-02-23T08:22:12;8.85;;;3.20;;
84187;SDS011;76752;45.648;13.764;2024-02-23T08:24:38;5.88;;;3.10;;
84187;SDS011;76752;45.648;13.764;2024-02-23T08:27:05;6.32;;;3.20;;
84187;SDS011;76752;45.648;13.764;2024-02-23T08:29:32;5.40;;;2.85;;
84187;SDS011;76752;45.648;13.764;2024-02-23T08:31:58;9.02;;;2.83;;
84187;SDS011;76752;45.648;13.764;2024-02-23T08:34:25;7.13;;;2.92;;
84187;SDS011;76752;45.648;13.764;2024-02-23T08:36:52;9.35;;;3.15;;
84187;SDS011;76752;45.648;13.764;2024-02-23T08:39:18;9.15;;;3.30;;
84187;SDS011;76752;45.648;13.764;2024-02-23T08:41:46;7.35;;;2.78;;
84187;SDS011;76752;45.648;13.764;2024-02-23T08:44:13;5.72;;;2.70;;
84187;SDS011;76752;45.648;13.764;2024-02-23T08:46:38;5.57;;;2.40;;
84187;SDS011;76752;45.648;13.764;2024-02-23T08:49:05;6.32;;;2.90;;
84187;SDS011;76752;45.648;13.764;2024-02-23T08:51:31;7.07;;;3.00;;
84187;SDS011;76752;45.648;13.764;2024-02-23T08:53:57;6.00;;;2.70;;
84187;SDS011;76752;45.648;13.764;2024-02-23T08:56:30;8.18;;;3.25;;
84187;SDS011;76752;45.648;13.764;2024-02-23T08:58:57;8.85;;;2.63;;
84187;SDS011;76752;45.648;13.764;2024-02-23T09:01:24;4.47;;;2.67;;
84187;SDS011;76752;45.648;13.764;2024-02-23T09:03:51;11.60;;;3.35;;
84187;SDS011;76752;45.648;13.764;2024-02-23T09:06:17;5.43;;;3.03;;
84187;SDS011;76752;45.648;13.764;2024-02-23T09:08:44;8.48;;;2.67;;
84187;SDS011;76752;45.648;13.764;2024-02-23T09:11:11;6.93;;;3.00;;
84187;SDS011;76752;45.648;13.764;2024-02-23T09:13:38;9.73;;;2.53;;
84187;SDS011;76752;45.648;13.764;2024-02-23T09:16:04;7.25;;;3.05;;
84187;SDS011;76752;45.648;13.764;2024-02-23T09:18:31;7.22;;;3.45;;
84187;SDS011;76752;45.648;13.764;2024-02-23T09:20:57;10.18;;;3.22;;
84187;SDS011;76752;45.648;13.764;2024-02-23T09:23:24;4.97;;;2.85;;
84187;SDS011;76752;45.648;13.764;2024-02-23T09:25:54;8.50;;;2.60;;
84187;SDS011;76752;45.648;13.764;2024-02-23T09:28:21;8.45;;;2.88;;
84187;SDS011;76752;45.648;13.764;2024-02-23T09:30:47;7.20;;;2.55;;
84187;SDS011;76752;45.648;13.764;2024-02-23T09:33:13;7.03;;;2.67;;
84187;SDS011;76752;45.648;13.764;2024-02-23T09:35:39;8.05;;;2.80;;
84187;SDS011;76752;45.648;13.764;2024-02-23T09:38:05;4.60;;;2.85;;
84187;SDS011;76752;45.648;13.764;2024-02-23T09:40:31;5.25;;;2.50;;
84187;SDS011;76752;45.648;13.764;2024-02-23T09:42:57;3.65;;;2.58;;
84187;SDS011;76752;45.648;13.764;2024-02-23T09:45:27;4.78;;;2.35;;
84187;SDS011;76752;45.648;13.764;2024-02-23T09:47:54;8.85;;;2.75;;
84187;SDS011;76752;45.648;13.764;2024-02-23T09:50:22;6.53;;;2.70;;
84187;SDS011;76752;45.648;13.764;2024-02-23T09:52:49;13.18;;;3.00;;
84187;SDS011;76752;45.648;13.764;2024-02-23T09:55:20;8.93;;;3.00;;
84187;SDS011;76752;45.648;13.764;2024-02-23T09:57:47;9.70;;;2.72;;
84187;SDS011;76752;45.648;13.764;2024-02-23T10:00:17;9.93;;;2.72;;
84187;SDS011;76752;45.648;13.764;2024-02-23T10:02:43;11.57;;;2.90;;
84187;SDS011;76752;45.648;13.764;2024-02-23T10:05:12;13.10;;;2.88;;
84187;SDS011;76752;45.648;13.764;2024-02-23T10:07:40;12.23;;;3.03;;
84187;SDS011;76752;45.648;13.764;2024-02-23T10:10:08;5.30;;;2.92;;
84187;SDS011;76752;45.648;13.764;2024-02-23T10:12:36;6.30;;;2.42;;
84187;SDS011;76752;45.648;13.764;2024-02-23T10:15:03;12.90;;;3.22;;
84187;SDS011;76752;45.648;13.764;2024-02-23T10:17:32;9.38;;;3.15;;
84187;SDS011;76752;45.648;13.764;2024-02-23T10:20:01;6.65;;;3.33;;
84187;SDS011;76752;45.648;13.764;2024-02-23T10:22:31;12.75;;;3.28;;
84187;SDS011;76752;45.648;13.764;2024-02-23T10:24:57;10.63;;;3.35;;
84187;SDS011;76752;45.648;13.764;2024-02-23T10:27:23;11.10;;;2.95;;
84187;SDS011;76752;45.648;13.764;2024-02-23T10:29:49;6.32;;;3.08;;
84187;SDS011;76752;45.648;13.764;2024-02-23T10:32:16;7.60;;;3.00;;
84187;SDS011;76752;45.648;13.764;2024-02-23T10:34:48;5.32;;;2.72;;
84187;SDS011;76752;45.648;13.764;2024-02-23T10:37:17;11.38;;;2.50;;
84187;SDS011;76752;45.648;13.764;2024-02-23T10:39:43;6.90;;;2.92;;
84187;SDS011;76752;45.648;13.764;2024-02-23T10:42:12;5.88;;;3.08;;
84187;SDS011;76752;45.648;13.764;2024-02-23T10:44:42;11.20;;;3.08;;
84187;SDS011;76752;45.648;13.764;2024-02-23T10:47:08;5.60;;;2.83;;
84187;SDS011;76752;45.648;13.764;2024-02-23T10:49:34;9.75;;;3.25;;
84187;SDS011;76752;45.648;13.764;2024-02-23T10:52:03;6.30;;;2.97;;
84187;SDS011;76752;45.648;13.764;2024-02-23T10:54:31;5.07;;;3.13;;
84187;SDS011;76752;45.648;13.764;2024-02-23T10:56:58;14.45;;;2.90;;
84187;SDS011;76752;45.648;13.764;2024-02-23T10:59:24;8.55;;;2.90;;
84187;SDS011;76752;45.648;13.764;2024-02-23T11:01:53;7.40;;;3.28;;
84187;SDS011;76752;45.648;13.764;2024-02-23T11:04:22;8.13;;;3.63;;
84187;SDS011;76752;45.648;13.764;2024-02-23T11:06:54;12.13;;;10.82;;
84187;SDS011;76752;45.648;13.764;2024-02-23T11:09:23;9.55;;;4.63;;
84187;SDS011;76752;45.648;13.764;2024-02-23T11:11:56;28.83;;;21.75;;
84187;SDS011;76752;45.648;13.764;2024-02-23T11:14:31;7.10;;;5.65;;
84187;SDS011;76752;45.648;13.764;2024-02-23T11:17:01;21.98;;;17.02;;
84187;SDS011;76752;45.648;13.764;2024-02-23T11:19:34;10.00;;;5.05;;
84187;SDS011;76752;45.648;13.764;2024-02-23T11:22:09;13.20;;;8.38;;
84187;SDS011;76752;45.648;13.764;2024-02-23T11:24:35;21.47;;;11.40;;
84187;SDS011;76752;45.648;13.764;2024-02-23T11:27:12;18.23;;;9.57;;
84187;SDS011;76752;45.648;13.764;2024-02-23T11:29:46;16.95;;;10.07;;
84187;SDS011;76752;45.648;13.764;2024-02-23T11:32:15;19.23;;;10.05;;
84187;SDS011;76752;45.648;13.764;2024-02-23T11:35:03;25.83;;;13.95;;
84187;SDS011;76752;45.648;13.764;2024-02-23T11:37:30;23.88;;;12.20;;
84187;SDS011;76752;45.648;13.764;2024-02-23T11:39:56;23.58;;;14.48;;
84187;SDS011;76752;45.648;13.764;2024-02-23T11:42:26;33.22;;;16.92;;
84187;SDS011;76752;45.648;13.764;2024-02-23T11:44:52;29.95;;;17.17;;
84187;SDS011;76752;45.648;13.764;2024-02-23T11:47:19;46.00;;;24.00;;
84187;SDS011;76752;45.648;13.764;2024-02-23T11:49:46;57.20;;;25.25;;
84187;SDS011;76752;45.648;13.764;2024-02-23T11:52:12;48.88;;;26.13;;
84187;SDS011;76752;45.648;13.764;2024-02-23T11:54:38;53.40;;;26.20;;
84187;SDS011;76752;45.648;13.764;2024-02-23T11:57:04;53.83;;;27.67;;
84187;SDS011;76752;45.648;13.764;2024-02-23T11:59:30;55.38;;;27.08;;
84187;SDS011;76752;45.648;13.764;2024-02-23T12:01:56;55.35;;;29.10;;
84187;SDS011;76752;45.648;13.764;2024-02-23T12:04:22;56.65;;;30.63;;
84187;SDS011;76752;45.648;13.764;2024-02-23T12:06:52;61.17;;;30.65;;
84187;SDS011;76752;45.648;13.764;2024-02-23T12:09:18;64.65;;;32.05;;
84187;SDS011;76752;45.648;13.764;2024-02-23T12:11:44;65.63;;;31.27;;
84187;SDS011;76752;45.648;13.764;2024-02-23T12:14:11;63.45;;;32.33;;
84187;SDS011;76752;45.648;13.764;2024-02-23T12:16:40;67.63;;;35.22;;
84187;SDS011;76752;45.648;13.764;2024-02-23T12:19:07;79.78;;;40.15;;
84187;SDS011;76752;45.648;13.764;2024-02-23T12:21:34;72.93;;;36.92;;
84187;SDS011;76752;45.648;13.764;2024-02-23T12:24:04;89.93;;;45.17;;
84187;SDS011;76752;45.648;13.764;2024-02-23T12:26:33;81.38;;;42.88;;
84187;SDS011;76752;45.648;13.764;2024-02-23T12:29:00;77.55;;;42.53;;
84187;SDS011;76752;45.648;13.764;2024-02-23T12:31:27;87.18;;;42.25;;
84187;SDS011;76752;45.648;13.764;2024-02-23T12:33:53;93.43;;;44.63;;
84187;SDS011;76752;45.648;13.764;2024-02-23T12:36:20;80.97;;;43.72;;
84187;SDS011;76752;45.648;13.764;2024-02-23T12:38:48;87.43;;;42.13;;
84187;SDS011;76752;45.648;13.764;2024-02-23T12:41:13;79.95;;;41.75;;
84187;SDS011;76752;45.648;13.764;2024-02-23T12:43:39;82.45;;;42.97;;
84187;SDS011;76752;45.648;13.764;2024-02-23T12:46:05;74.32;;;38.30;;
84187;SDS011;76752;45.648;13.764;2024-02-23T12:48:33;83.90;;;43.15;;
84187;SDS011;76752;45.648;13.764;2024-02-23T12:50:59;81.00;;;42.10;;
84187;SDS011;76752;45.648;13.764;2024-02-23T12:53:31;86.97;;;41.35;;
84187;SDS011;76752;45.648;13.764;2024-02-23T12:56:05;74.45;;;39.83;;
84187;SDS011;76752;45.648;13.764;2024-02-23T12:58:31;79.82;;;41.35;;
84187;SDS011;76752;45.648;13.764;2024-02-23T13:00:56;75.43;;;39.00;;
84187;SDS011;76752;45.648;13.764;2024-02-23T13:03:23;71.45;;;37.33;;
84187;SDS011;76752;45.648;13.764;2024-02-23T13:05:51;85.25;;;38.17;;
84187;SDS011;76752;45.648;13.764;2024-02-23T13:08:17;83.78;;;38.58;;
84187;SDS011;76752;45.648;13.764;2024-02-23T13:10:43;75.35;;;35.42;;
84187;SDS011;76752;45.648;13.764;2024-02-23T13:13:12;71.32;;;35.03;;
84187;SDS011;76752;45.648;13.764;2024-02-23T13:15:40;66.75;;;33.15;;
84187;SDS011;76752;45.648;13.764;2024-02-23T13:18:09;65.30;;;32.13;;
84187;SDS011;76752;45.648;13.764;2024-02-23T13:20:36;67.10;;;35.28;;
84187;SDS011;76752;45.648;13.764;2024-02-23T13:23:02;67.22;;;32.78;;
84187;SDS011;76752;45.648;13.764;2024-02-23T13:25:27;71.30;;;34.22;;
84187;SDS011;76752;45.648;13.764;2024-02-23T13:27:53;66.00;;;32.53;;
84187;SDS011;76752;45.648;13.764;2024-02-23T13:30:19;58.47;;;29.77;;
84187;SDS011;76752;45.648;13.764;2024-02-23T13:32:45;68.00;;;33.38;;
84187;SDS011;76752;45.648;13.764;2024-02-23T13:35:11;61.15;;;31.88;;
84187;SDS011;76752;45.648;13.764;2024-02-23T13:37:39;56.35;;;30.10;;
84187;SDS011;76752;45.648;13.764;2024-02-23T13:40:05;58.72;;;29.15;;
84187;SDS011;76752;45.648;13.764;2024-02-23T13:42:36;65.53;;;30.50;;
84187;SDS011;76752;45.648;13.764;2024-02-23T13:45:04;58.92;;;30.25;;
84187;SDS011;76752;45.648;13.764;2024-02-23T13:47:31;51.47;;;28.27;;
84187;SDS011;76752;45.648;13.764;2024-02-23T13:49:57;54.53;;;28.38;;
84187;SDS011;76752;45.648;13.764;2024-02-23T13:52:23;50.78;;;28.17;;
84187;SDS011;76752;45.648;13.764;2024-02-23T13:54:49;56.25;;;29.95;;
84187;SDS011;76752;45.648;13.764;2024-02-23T13:57:15;62.08;;;28.63;;
84187;SDS011;76752;45.648;13.764;2024-02-23T13:59:41;50.45;;;26.27;;
84187;SDS011;76752;45.648;13.764;2024-02-23T14:02:10;57.63;;;27.85;;
84187;SDS011;76752;45.648;13.764;2024-02-23T14:04:37;50.35;;;27.13;;
84187;SDS011;76752;45.648;13.764;2024-02-23T14:07:03;52.85;;;27.00;;
84187;SDS011;76752;45.648;13.764;2024-02-23T14:09:30;45.17;;;25.20;;
84187;SDS011;76752;45.648;13.764;2024-02-23T14:11:56;51.20;;;25.83;;
84187;SDS011;76752;45.648;13.764;2024-02-23T14:14:22;50.10;;;24.45;;
84187;SDS011;76752;45.648;13.764;2024-02-23T14:16:48;51.47;;;24.23;;
84187;SDS011;76752;45.648;13.764;2024-02-23T14:19:14;48.40;;;24.08;;
84187;SDS011;76752;45.648;13.764;2024-02-23T14:21:43;54.00;;;24.45;;
84187;SDS011;76752;45.648;13.764;2024-02-23T14:24:09;44.33;;;22.60;;